createdAt,value
2019-05-15T00:00:18.412Z,102276.58
2019-05-15T00:02:49.680Z,102277.47
2019-05-15T00:05:20.738Z,102281.09
2019-05-15T00:07:51.658Z,102278.47
2019-05-15T00:10:22.626Z,102277.14
2019-05-15T00:12:53.600Z,102278.54
2019-05-15T00:15:24.657Z,102269.61
2019-05-15T00:17:57.801Z,102284.41
2019-05-15T00:20:29.434Z,102271.02
2019-05-15T00:23:01.079Z,102279.55
2019-05-15T00:25:32.172Z,102276.89
2019-05-15T00:28:03.048Z,102279.66
2019-05-15T00:30:34.046Z,102276.55
2019-05-15T00:33:08.657Z,102281.06
2019-05-15T00:35:39.612Z,102279.34
2019-05-15T00:38:11.044Z,102281.62
2019-05-15T00:40:42.015Z,102281.63
2019-05-15T00:43:13.425Z,102279.44
2019-05-15T00:45:44.546Z,102278.55
2019-05-15T00:48:18.222Z,102283.52
2019-05-15T00:50:48.639Z,102280.83
2019-05-15T00:53:19.840Z,102278.25
2019-05-15T00:55:50.877Z,102276.52
2019-05-15T00:58:21.858Z,102283.70
2019-05-15T01:00:52.650Z,102271.70
2019-05-15T01:03:23.607Z,102267.25
2019-05-15T01:05:54.620Z,102264.61
2019-05-15T01:08:25.580Z,102255.29
2019-05-15T01:10:58.222Z,102263.77
2019-05-15T03:18:10.540Z,102257.14
2019-05-15T03:20:41.985Z,102259.36
2019-05-15T03:23:12.850Z,102254.91
2019-05-15T03:25:43.830Z,102252.70
2019-05-15T03:28:33.426Z,102257.13
2019-05-15T03:31:26.385Z,102251.80
2019-05-15T03:33:44.845Z,102252.69
2019-05-15T03:36:13.459Z,102252.25
2019-05-15T03:38:43.108Z,102252.69
2019-05-15T03:41:14.080Z,102253.16
2019-05-15T03:43:45.043Z,102252.70
2019-05-15T03:46:16.020Z,102250.93
2019-05-15T03:48:48.766Z,102254.91
2019-05-15T03:51:20.111Z,102250.94
2019-05-15T03:53:51.403Z,102259.38
2019-05-15T03:56:22.293Z,102259.81
2019-05-15T03:58:53.313Z,102258.03
2019-05-15T04:01:34.129Z,102261.98
2019-05-15T04:03:59.630Z,102260.20
2019-05-15T04:06:29.991Z,102263.73
2019-05-15T04:09:02.745Z,102255.75
2019-05-15T04:11:52.762Z,102251.77
2019-05-15T04:14:24.329Z,102257.07
2019-05-15T04:16:59.439Z,102253.09
2019-05-15T04:19:31.677Z,102253.98
2019-05-15T04:22:02.782Z,102262.42
2019-05-15T04:27:06.289Z,102263.30
2019-05-15T04:32:10.165Z,102270.84
2019-05-15T04:34:39.849Z,102265.07
2019-05-15T04:37:11.200Z,102271.70
2019-05-15T04:39:42.160Z,102265.09
2019-05-15T04:42:13.009Z,102264.17
2019-05-15T04:44:44.042Z,102265.97
2019-05-15T04:47:15.064Z,102257.10
2019-05-15T04:49:45.994Z,102256.66
2019-05-15T04:52:19.478Z,102261.11
2019-05-15T04:54:49.672Z,102267.37
2019-05-15T04:57:20.706Z,102270.02
2019-05-15T04:59:51.729Z,102267.38
2019-05-15T05:02:27.218Z,102265.15
2019-05-15T05:04:58.838Z,102272.70
2019-05-15T05:07:30.032Z,102275.37
2019-05-15T05:10:01.008Z,102272.27
2019-05-15T05:12:32.147Z,102277.14
2019-05-15T05:15:03.316Z,102275.81
2019-05-15T05:17:34.384Z,102280.70
2019-05-15T05:20:08.091Z,102275.80
2019-05-15T05:22:39.829Z,102276.70
2019-05-15T05:25:11.307Z,102279.80
2019-05-15T05:27:42.580Z,102274.44
2019-05-15T05:30:13.696Z,102276.22
2019-05-15T05:32:44.771Z,102271.73
2019-05-15T05:35:15.757Z,102274.84
2019-05-15T05:37:48.034Z,102275.72
2019-05-15T05:40:19.376Z,102281.91
2019-05-15T05:42:50.378Z,102278.33
2019-05-15T05:45:21.404Z,102281.41
2019-05-15T05:47:52.541Z,102279.98
2019-05-15T05:50:44.122Z,102271.47
2019-05-15T05:58:22.908Z,102265.92
2019-05-15T06:01:18.773Z,102267.55
2019-05-15T06:03:51.083Z,102258.77
2019-05-15T06:07:22.234Z,102257.56
2019-05-15T06:10:53.898Z,102254.61
2019-05-15T06:16:38.886Z,102256.96
2019-05-15T06:19:32.254Z,102253.36
2019-05-15T06:22:22.731Z,102259.16
2019-05-15T06:27:24.719Z,102255.21
2019-05-15T06:32:24.985Z,102251.78
2019-05-15T06:34:57.811Z,102241.19
2019-05-15T06:39:58.859Z,102255.80
2019-05-15T06:45:02.952Z,102246.73
2019-05-15T06:47:34.056Z,102250.42
2019-05-15T06:52:38.092Z,102251.45
2019-05-15T06:57:40.090Z,102251.85
2019-05-15T07:02:40.285Z,102244.63
2019-05-15T07:05:11.573Z,102244.97
2019-05-15T07:10:11.753Z,102244.08
2019-05-15T07:12:44.881Z,102246.99
2019-05-15T07:15:18.308Z,102243.13
2019-05-15T07:20:22.792Z,102240.23
2019-05-15T07:27:49.950Z,102229.73
2019-05-15T07:32:52.301Z,102226.46
2019-05-15T07:38:01.232Z,102212.03
2019-05-15T07:43:09.318Z,102218.04
2019-05-15T07:48:11.338Z,102229.50
2019-05-15T07:53:13.964Z,102227.72
2019-05-15T07:58:14.387Z,102220.53
2019-05-15T08:00:49.366Z,102217.22
2019-05-15T08:03:39.585Z,102211.74
2019-05-15T08:09:30.063Z,102215.12
2019-05-15T08:12:58.039Z,102212.05
2019-05-15T08:15:57.847Z,102205.63
2019-05-15T08:26:01.501Z,102190.64
2019-05-15T08:39:53.153Z,102189.58
2019-05-15T08:43:01.680Z,102178.78
2019-05-15T08:48:14.582Z,102169.12
2019-05-15T08:53:50.015Z,102174.64
2019-05-15T08:56:59.961Z,102177.55
2019-05-15T09:02:04.044Z,102166.62
2019-05-15T09:04:35.365Z,102176.80
2019-05-15T09:07:08.955Z,102169.14
2019-05-15T09:09:39.161Z,102161.27
2019-05-15T09:12:10.098Z,102152.31
2019-05-15T09:14:41.650Z,102154.05
2019-05-15T09:17:12.730Z,102147.70
2019-05-15T09:19:44.082Z,102141.78
2019-05-15T09:22:15.094Z,102147.23
2019-05-15T09:24:48.655Z,102148.07
2019-05-15T09:27:19.530Z,102145.19
2019-05-15T09:29:51.145Z,102137.63
2019-05-15T09:32:22.624Z,102142.10
2019-05-15T09:34:55.455Z,102131.44
2019-05-15T09:37:28.582Z,102124.03
2019-05-15T09:39:59.260Z,102127.02
2019-05-15T09:42:30.295Z,102116.13
2019-05-15T09:45:01.279Z,102114.98
2019-05-15T09:47:32.407Z,102101.00
2019-05-15T09:50:03.688Z,102102.61
2019-05-15T09:52:34.697Z,102102.41
2019-05-15T09:55:08.624Z,102101.98
2019-05-15T09:57:39.350Z,102104.70
2019-05-15T10:00:12.108Z,102088.79
2019-05-15T10:02:43.426Z,102094.16
2019-05-15T10:05:18.493Z,102089.53
2019-05-15T10:07:48.825Z,102082.44
2019-05-15T10:10:20.002Z,102087.53
2019-05-15T10:12:51.575Z,102085.84
2019-05-15T10:15:25.510Z,102083.56
2019-05-15T10:17:59.502Z,102075.86
2019-05-15T10:20:29.312Z,102062.61
2019-05-15T10:23:00.666Z,102070.13
2019-05-15T10:25:31.799Z,102065.96
2019-05-15T10:28:02.848Z,102075.11
2019-05-15T10:30:33.838Z,102061.97
2019-05-15T10:33:04.973Z,102057.52
2019-05-15T10:35:36.068Z,102051.98
2019-05-15T10:38:08.775Z,102053.55
2019-05-15T10:40:57.070Z,102058.21
2019-05-15T10:43:12.767Z,102055.30
2019-05-15T10:45:43.880Z,102050.36
2019-05-15T10:48:14.843Z,102048.99
2019-05-15T10:50:45.860Z,102036.02
2019-05-15T10:53:18.769Z,102037.34
2019-05-15T10:55:50.295Z,102026.45
2019-05-15T10:58:21.876Z,102035.42
2019-05-15T11:00:53.784Z,102030.65
2019-05-15T11:03:25.113Z,102033.55
2019-05-15T11:05:57.976Z,102028.33
2019-05-15T11:08:29.204Z,102014.70
2019-05-15T11:11:00.296Z,102004.45
2019-05-15T11:13:31.304Z,102005.70
2019-05-15T11:16:02.402Z,102009.38
2019-05-15T11:18:33.375Z,102014.02
2019-05-15T11:21:04.670Z,102010.08
2019-05-15T11:23:35.775Z,101999.75
2019-05-15T11:26:08.796Z,101998.02
2019-05-15T11:28:39.797Z,102001.48
2019-05-15T11:31:10.975Z,101990.13
2019-05-15T11:33:44.295Z,102004.53
2019-05-15T11:36:18.545Z,101985.59
2019-05-15T11:38:53.035Z,101978.18
2019-05-15T11:41:31.689Z,101993.28
2019-05-15T11:44:02.747Z,101980.34
2019-05-15T11:46:39.249Z,101975.38
2019-05-15T11:49:10.616Z,101969.57
2019-05-15T11:51:41.704Z,101948.72
2019-05-15T11:54:12.702Z,101964.91
2019-05-15T11:59:13.593Z,101951.36
2019-05-15T12:01:48.878Z,101950.02
2019-05-15T12:04:34.518Z,101946.52
2019-05-15T12:07:29.687Z,101937.84
2019-05-15T12:10:03.621Z,101937.60
2019-05-15T12:12:38.611Z,101942.95
2019-05-15T12:15:12.237Z,101938.98
2019-05-15T12:17:51.016Z,101931.39
2019-05-15T12:20:30.357Z,101937.72
2019-05-15T12:23:00.812Z,101927.70
2019-05-15T12:25:33.049Z,101933.16
2019-05-15T12:30:43.692Z,101908.96
2019-05-15T12:33:18.354Z,101943.96
2019-05-15T12:35:50.725Z,101931.40
2019-05-15T12:38:23.702Z,101925.27
2019-05-15T12:39:23.654Z,101923.85
2019-05-15T12:59:51.252Z,101919.67
2019-05-15T13:06:08.017Z,101905.47
2019-05-15T13:08:44.230Z,101902.05
2019-05-15T13:11:19.754Z,101900.38
2019-05-15T13:19:34.920Z,101888.91
2019-05-15T13:24:50.243Z,101892.85
2019-05-15T13:32:49.538Z,101878.06
2019-05-15T13:35:20.457Z,101868.16
2019-05-15T13:40:42.452Z,101855.38
2019-05-15T13:45:43.852Z,101863.28
2019-05-15T13:48:42.523Z,101860.27
2019-05-15T13:51:14.024Z,101845.09
2019-05-15T14:02:09.750Z,101845.75
2019-05-15T14:04:49.179Z,101843.36
2019-05-15T14:07:45.995Z,101850.87
2019-05-15T14:12:35.318Z,101831.08
2019-05-15T14:15:13.062Z,101830.96
2019-05-15T14:17:49.620Z,101825.28
2019-05-15T14:22:59.054Z,101834.83
2019-05-15T14:25:32.047Z,101839.58
2019-05-15T14:28:22.702Z,101835.10
2019-05-15T14:33:30.527Z,101835.31
2019-05-15T14:38:30.451Z,101830.70
2019-05-15T14:43:33.626Z,101817.23
2019-05-15T14:48:35.409Z,101829.70
2019-05-15T14:51:09.822Z,101814.14
2019-05-15T14:56:10.005Z,101803.00
2019-05-15T15:03:51.609Z,101800.36
2019-05-15T15:06:24.334Z,101798.26
2019-05-15T15:09:15.909Z,101797.31
2019-05-15T15:14:28.534Z,101783.41
2019-05-15T15:17:19.761Z,101791.66
2019-05-15T15:19:52.266Z,101792.96
2019-05-15T15:22:28.486Z,101788.95
2019-05-15T15:25:02.200Z,101794.33
2019-05-15T15:32:35.187Z,101781.12
2019-05-15T15:35:09.798Z,101775.07
2019-05-15T15:37:43.265Z,101772.77
2019-05-15T15:40:15.849Z,101782.77
2019-05-15T15:49:12.810Z,101764.53
2019-05-15T15:52:38.420Z,101760.14
2019-05-15T15:55:30.126Z,101758.09
2019-05-15T15:58:05.090Z,101763.45
2019-05-15T16:05:38.405Z,101741.95
2019-05-15T16:08:13.097Z,101735.11
2019-05-15T16:10:44.753Z,101734.57
2019-05-15T16:13:18.830Z,101741.94
2019-05-15T16:19:10.074Z,101750.08
2019-05-15T16:34:52.127Z,101742.86
2019-05-15T16:46:24.446Z,101726.16
2019-05-15T16:54:19.837Z,101714.24
2019-05-15T17:00:54.816Z,101717.87
2019-05-15T17:03:45.525Z,101714.87
2019-05-15T17:06:38.699Z,101708.63
2019-05-15T17:12:32.733Z,101715.79
2019-05-15T17:26:43.624Z,101718.21
2019-05-15T17:34:22.937Z,101709.33
2019-05-15T17:39:34.667Z,101701.04
2019-05-15T17:41:55.995Z,101701.95
2019-05-15T17:44:28.706Z,101702.13
2019-05-15T17:47:01.097Z,101707.41
2019-05-15T17:49:32.274Z,101706.12
2019-05-15T18:04:55.205Z,101710.53
2019-05-15T18:41:18.388Z,101699.73
2019-05-15T18:43:49.677Z,101711.14
2019-05-15T18:46:20.778Z,101710.33
2019-05-15T18:48:51.882Z,101706.39
2019-05-15T18:53:53.882Z,101707.80
2019-05-15T18:56:25.045Z,101702.56
2019-05-15T18:58:57.806Z,101706.78
2019-05-15T19:01:29.067Z,101706.84
2019-05-15T19:04:00.231Z,101710.78
2019-05-15T19:06:31.335Z,101706.92
2019-05-15T19:09:02.299Z,101708.75
2019-05-15T19:11:33.660Z,101708.50
2019-05-15T19:14:10.871Z,101711.62
2019-05-15T19:16:41.959Z,101709.03
2019-05-15T19:19:13.335Z,101716.73
2019-05-15T19:24:19.175Z,101719.80
2019-05-15T19:26:50.345Z,101724.38
2019-05-15T19:29:21.371Z,101719.08
2019-05-15T19:31:52.839Z,101714.56
2019-05-15T19:34:23.841Z,101716.66
2019-05-15T19:36:58.024Z,101723.88
2019-05-15T19:39:28.950Z,101716.95
2019-05-15T19:41:59.945Z,101718.36
2019-05-15T19:44:30.981Z,101718.97
2019-05-15T19:47:02.208Z,101716.73
2019-05-15T19:49:40.151Z,101712.89
2019-05-15T19:52:11.427Z,101713.94
2019-05-15T19:54:42.398Z,101715.44
2019-05-15T19:57:13.466Z,101713.55
2019-05-15T20:01:09.707Z,101712.26
2019-05-15T20:03:22.081Z,101712.34
2019-05-15T20:05:53.352Z,101709.28
2019-05-15T20:09:13.543Z,101720.89
2019-05-15T20:11:44.654Z,101727.86
2019-05-15T20:14:18.277Z,101728.67
2019-05-15T20:16:50.324Z,101728.86
2019-05-15T20:19:21.745Z,101725.17
2019-05-15T20:21:52.807Z,101726.67
2019-05-15T20:24:28.575Z,101732.86
2019-05-15T20:26:59.129Z,101726.25
2019-05-15T20:29:44.150Z,101721.83
2019-05-15T20:32:30.915Z,101723.93
2019-05-15T20:35:03.652Z,101722.30
2019-05-15T20:37:54.048Z,101725.23
2019-05-15T20:40:32.788Z,101730.62
2019-05-15T20:43:08.282Z,101730.34
2019-05-15T20:45:50.333Z,101729.32
2019-05-15T20:48:20.784Z,101724.88
2019-05-15T20:51:05.878Z,101724.83
2019-05-15T20:53:33.398Z,101730.02
2019-05-15T20:56:29.536Z,101731.81
2019-05-15T20:59:02.306Z,101732.11
2019-05-15T21:01:33.380Z,101736.14
2019-05-15T21:04:24.865Z,101727.94
2019-05-15T21:06:48.211Z,101734.22
2019-05-15T21:09:20.191Z,101731.66
2019-05-15T21:11:51.591Z,101728.33
2019-05-15T21:14:22.707Z,101731.23
2019-05-15T21:16:53.725Z,101727.06
2019-05-15T21:19:24.792Z,101722.80
2019-05-15T21:21:56.220Z,101718.75
2019-05-15T21:24:28.347Z,101713.41
2019-05-15T21:26:59.533Z,101712.52
2019-05-15T21:29:30.674Z,101714.52
2019-05-15T21:32:01.637Z,101701.33
2019-05-15T21:34:37.711Z,101707.73
2019-05-15T21:37:08.512Z,101704.66
2019-05-15T21:39:39.262Z,101704.87
2019-05-15T21:42:10.249Z,101705.42
2019-05-15T21:44:41.139Z,101705.64
2019-05-15T21:47:12.185Z,101705.44
2019-05-15T21:49:43.255Z,101705.98
2019-05-15T21:52:14.273Z,101707.96
2019-05-15T21:54:45.173Z,101710.41
2019-05-15T21:57:32.412Z,101705.06
2019-05-15T21:59:48.778Z,101698.45
2019-05-15T22:02:20.678Z,101701.35
2019-05-15T22:04:55.964Z,101695.36
2019-05-15T22:07:25.042Z,101694.65
2019-05-15T22:09:55.813Z,101696.16
2019-05-15T22:12:28.577Z,101696.24
2019-05-15T22:14:59.601Z,101695.36
2019-05-15T22:17:30.707Z,101698.98
2019-05-15T22:20:01.725Z,101690.90
2019-05-15T22:22:33.076Z,101692.78
2019-05-15T22:25:04.126Z,101684.70
2019-05-15T22:27:35.336Z,101684.28
2019-05-15T22:30:08.299Z,101676.53
2019-05-15T22:32:41.610Z,101674.97
2019-05-15T22:35:14.219Z,101671.16
2019-05-15T22:37:45.380Z,101669.14
2019-05-15T22:40:18.366Z,101665.56
2019-05-15T22:42:48.985Z,101668.67
2019-05-15T22:45:20.592Z,101670.52
2019-05-15T22:47:51.893Z,101667.53
2019-05-15T22:50:22.940Z,101664.15
2019-05-15T22:52:54.396Z,101662.38
2019-05-15T22:55:25.724Z,101658.84
2019-05-15T22:57:58.637Z,101656.61
2019-05-15T23:00:29.418Z,101658.00
2019-05-15T23:03:00.371Z,101657.16
2019-05-15T23:05:31.929Z,101659.92
2019-05-15T23:08:03.174Z,101665.50
2019-05-15T23:10:34.190Z,101658.23
2019-05-15T23:13:06.117Z,101663.11
2019-05-15T23:15:38.553Z,101651.47
2019-05-15T23:18:09.655Z,101650.86
2019-05-15T23:20:40.494Z,101649.40
2019-05-15T23:23:11.556Z,101645.48
2019-05-15T23:25:42.956Z,101640.63
2019-05-15T23:28:13.873Z,101645.01
2019-05-15T23:30:44.786Z,101642.85
2019-05-15T23:33:15.807Z,101636.86
2019-05-15T23:35:48.517Z,101631.63
2019-05-15T23:38:19.658Z,101633.16
2019-05-15T23:40:50.609Z,101629.59
2019-05-15T23:43:21.585Z,101636.20
2019-05-15T23:45:52.642Z,101631.98
2019-05-15T23:48:23.957Z,101635.94
2019-05-15T23:50:59.168Z,101628.38
2019-05-15T23:53:30.029Z,101626.87
2019-05-15T23:56:01.084Z,101627.27
2019-05-15T23:58:32.057Z,101626.87
